Portada
METAR-TAF:

METAR-TAF

Aeroports :

Batna, Algèria

latitud: 35-33N, longitud: 006-11E, altitud: 1052 m

Observació

L'informe es va fer fa 35 minuts, a les 12:00 UTC
Vent 16 kt del Oest
Temperatura 14°C
Humitat 55%
Pressió 1011 hPa
Visibilitat 10 km o més
Escasses núvols a una alçada de 2000 ft
Cel ennuvolat a una alçada de 20000 ft

METAR: DABT 131200Z 27016KT 9999 FEW020 BKN200 14/05 Q1011

Hora: 13:35 (12:35 UTC)

Pronòstic

L'informe es va fer fa 1 hora i 35 minuts, a les 11:00 UTC
Pronòstic vàlid del 13 a les 12 UTC al 14 a les 12 UTC
Vent 14 kt del Oest
Visibilitat 10 km o més
Escasses núvols a una alçada de 2000 ft
Núvols disperses a una alçada de 20000 ft
Probabilitat 30% :
Temporalment
l' 13 a les 12 UTC al 13 a les 18 UTC
Vent 15 kt del Oest amb ràfegues de 25 kt
Escasses núvols a una alçada de 2600 ft, Cumulus congestus.
Escasses núvols a una alçada de 3000 ft, Cumulonimbus.

TAF: DABT 131100Z 1312/1412 26014KT 9999 FEW020 SCT200 PROB30 TEMPO 1312/1318 26015G25KT FEW026TCU FEW030CB

Observacions i pronòstics meteorològics de més de 4000 aeroports (METAR i TAF).

Les estacions disponibles són els punts grocs i vermells al mapa.

Posi el ratolí al punt desitjat per veure el nom de l'estació.

Feu clic per veure les observacions i els pronòstics meteorològics.

Per canviar el mapa: feu clic els botons verds amb una creu de color negre per apropar; al botó verd amb un guió per allunyar la imatge; o en les fletxes verdes per a mapes adjacents.


METAR-TAF: